createdAt,value
2023-06-20T00:01:58.620Z,12.95
2023-06-20T00:04:25.373Z,16.00
2023-06-20T00:06:51.971Z,12.88
2023-06-20T00:09:18.565Z,13.70
2023-06-20T00:11:45.162Z,15.77
2023-06-20T00:14:13.461Z,14.98
2023-06-20T00:16:40.180Z,14.02
2023-06-20T00:19:06.885Z,19.17
2023-06-20T00:21:33.474Z,16.95
2023-06-20T00:24:00.068Z,16.45
2023-06-20T00:26:26.746Z,15.90
2023-06-20T00:28:53.399Z,18.05
2023-06-20T00:31:21.409Z,17.05
2023-06-20T00:33:48.847Z,14.75
2023-06-20T00:36:15.492Z,19.95
2023-06-20T00:38:42.061Z,16.73
2023-06-20T00:41:08.621Z,18.17
2023-06-20T00:43:35.536Z,17.50
2023-06-20T00:46:02.205Z,18.38
2023-06-20T00:48:30.395Z,20.23
2023-06-20T00:50:57.967Z,20.17
2023-06-20T00:53:24.607Z,19.80
2023-06-20T00:55:52.156Z,19.33
2023-06-20T00:58:19.992Z,20.13
2023-06-20T01:00:46.646Z,20.52
2023-06-20T01:03:14.886Z,20.35
2023-06-20T01:05:53.324Z,19.35
2023-06-20T01:08:25.059Z,20.52
2023-06-20T01:11:01.966Z,21.02
2023-06-20T01:13:41.454Z,19.20
2023-06-20T01:16:17.740Z,19.38
2023-06-20T01:18:53.989Z,19.42
2023-06-20T01:21:29.769Z,25.23
2023-06-20T01:24:02.829Z,18.85
2023-06-20T01:26:36.523Z,15.65
2023-06-20T01:29:17.014Z,24.52
2023-06-20T01:31:51.315Z,21.67
2023-06-20T01:34:21.531Z,19.27
2023-06-20T01:36:54.505Z,19.17
2023-06-20T01:39:25.893Z,28.02
2023-06-20T01:41:54.630Z,20.85
2023-06-20T01:44:22.569Z,26.23
2023-06-20T01:46:51.191Z,23.17
2023-06-20T01:49:18.666Z,22.25
2023-06-20T01:51:50.404Z,23.90
2023-06-20T01:54:18.123Z,19.88
2023-06-20T01:56:47.811Z,19.13
2023-06-20T01:59:16.570Z,25.02
2023-06-20T02:01:46.423Z,21.70
2023-06-20T02:04:15.781Z,23.15
2023-06-20T02:06:45.195Z,22.98
2023-06-20T02:09:13.844Z,26.15
2023-06-20T02:11:41.016Z,22.25
2023-06-20T02:14:09.860Z,23.95
2023-06-20T02:16:36.949Z,23.15
2023-06-20T02:19:04.029Z,23.75
2023-06-20T02:21:34.167Z,20.02
2023-06-20T02:24:03.301Z,23.98
2023-06-20T02:26:31.235Z,23.23
2023-06-20T02:28:59.804Z,22.08
2023-06-20T02:31:30.474Z,22.20
2023-06-20T02:33:59.026Z,24.73
2023-06-20T02:36:28.853Z,24.70
2023-06-20T02:38:57.531Z,25.42
2023-06-20T02:41:24.810Z,20.27
2023-06-20T02:43:51.457Z,23.02
2023-06-20T02:46:26.931Z,24.00
2023-06-20T02:49:05.755Z,16.42
2023-06-20T02:51:38.719Z,23.77
2023-06-20T02:54:11.444Z,23.70
2023-06-20T02:56:40.896Z,24.52
2023-06-20T02:59:10.276Z,29.33
2023-06-20T03:01:39.946Z,24.67
2023-06-20T03:04:10.333Z,20.63
2023-06-20T03:06:38.141Z,22.80
2023-06-20T03:09:05.502Z,23.88
2023-06-20T03:11:33.671Z,24.63
2023-06-20T03:14:00.320Z,21.55
2023-06-20T03:16:27.953Z,25.02
2023-06-20T03:18:55.982Z,19.65
2023-06-20T03:21:29.472Z,22.45
2023-06-20T03:23:59.953Z,20.25
2023-06-20T03:26:26.646Z,24.08
2023-06-20T03:28:53.695Z,21.15
2023-06-20T03:31:20.743Z,24.67
2023-06-20T03:33:47.585Z,21.58
2023-06-20T03:36:14.516Z,20.40
2023-06-20T03:38:43.150Z,23.05
2023-06-20T03:41:10.113Z,23.52
2023-06-20T03:43:37.166Z,24.77
2023-06-20T03:46:03.883Z,24.65
2023-06-20T03:48:30.733Z,23.65
2023-06-20T03:50:58.328Z,19.90
2023-06-20T03:53:27.568Z,22.20
2023-06-20T03:55:55.534Z,23.35
2023-06-20T03:58:22.237Z,21.52
2023-06-20T04:00:48.916Z,20.23
2023-06-20T04:03:17.668Z,19.50
2023-06-20T04:05:44.995Z,25.27
2023-06-20T04:08:12.423Z,24.42
2023-06-20T04:10:39.283Z,20.00
2023-06-20T04:13:08.171Z,20.67
2023-06-20T04:15:35.344Z,18.88
2023-06-20T04:18:03.078Z,20.52
2023-06-20T04:20:30.828Z,23.90
2023-06-20T04:22:57.513Z,22.33
2023-06-20T04:25:24.966Z,21.98
2023-06-20T04:27:51.720Z,23.58
2023-06-20T04:30:19.675Z,23.25
2023-06-20T04:32:48.253Z,22.75
2023-06-20T04:35:15.112Z,19.55
2023-06-20T04:37:42.693Z,20.40
2023-06-20T04:42:38.493Z,20.13
2023-06-20T04:45:06.354Z,21.92
2023-06-20T04:47:34.412Z,20.23
2023-06-20T04:50:02.293Z,19.17
2023-06-20T04:52:29.160Z,23.00
2023-06-20T04:54:55.780Z,23.48
2023-06-20T04:57:22.594Z,24.95
2023-06-20T04:59:49.407Z,22.02
2023-06-20T05:02:16.032Z,24.17
2023-06-20T05:04:44.008Z,21.92
2023-06-20T05:07:11.027Z,22.45
2023-06-20T05:09:38.757Z,23.50
2023-06-20T05:12:06.412Z,26.33
2023-06-20T05:14:33.010Z,21.67
2023-06-20T05:16:59.636Z,21.90
2023-06-20T05:19:26.253Z,26.40
2023-06-20T05:21:54.365Z,19.52
2023-06-20T05:24:21.036Z,22.58
2023-06-20T05:26:47.760Z,22.95
2023-06-20T05:29:14.402Z,20.25
2023-06-20T05:31:42.291Z,20.02
2023-06-20T05:34:09.181Z,23.50
2023-06-20T05:36:36.007Z,23.02
2023-06-20T05:39:04.181Z,17.25
2023-06-20T05:41:30.829Z,22.40
2023-06-20T05:43:57.576Z,20.02
2023-06-20T05:46:26.517Z,20.85
2023-06-20T05:48:53.290Z,18.23
2023-06-20T05:51:20.010Z,16.63
2023-06-20T05:53:48.475Z,19.08
2023-06-20T05:56:25.127Z,17.80
2023-06-20T05:58:51.926Z,20.02
2023-06-20T06:01:18.690Z,19.33
2023-06-20T06:03:45.481Z,14.50
2023-06-20T06:06:15.451Z,14.07
2023-06-20T06:08:42.236Z,16.42
2023-06-20T06:11:12.138Z,14.68
2023-06-20T06:13:40.353Z,13.88
2023-06-20T06:16:07.153Z,16.73
2023-06-20T06:18:35.189Z,14.48
2023-06-20T06:21:04.012Z,12.27
2023-06-20T06:23:31.001Z,14.43
2023-06-20T06:26:03.070Z,12.02
2023-06-20T06:28:29.772Z,13.77
2023-06-20T06:31:09.105Z,12.35
2023-06-20T06:33:36.439Z,10.40
2023-06-20T06:36:03.721Z,11.40
2023-06-20T06:38:30.869Z,12.27
2023-06-20T06:41:02.151Z,14.65
2023-06-20T06:43:28.887Z,12.27
2023-06-20T06:46:01.711Z,12.80
2023-06-20T06:48:29.906Z,13.23
2023-06-20T06:50:56.646Z,11.27
2023-06-20T06:53:25.347Z,11.82
2023-06-20T06:55:52.116Z,10.23
2023-06-20T06:58:18.869Z,10.40
2023-06-20T07:00:45.719Z,11.73
2023-06-20T07:03:15.406Z,11.73
2023-06-20T07:05:43.598Z,11.95
2023-06-20T07:08:10.290Z,11.70
2023-06-20T07:10:36.973Z,10.80
2023-06-20T07:13:03.768Z,12.95
2023-06-20T07:15:30.630Z,10.65
2023-06-20T07:17:57.445Z,12.95
2023-06-20T07:20:24.249Z,10.85
2023-06-20T07:22:52.306Z,11.55
2023-06-20T07:25:20.667Z,9.88
2023-06-20T07:27:47.467Z,12.88
2023-06-20T07:30:14.636Z,10.88
2023-06-20T07:32:47.524Z,11.50
2023-06-20T07:35:26.107Z,12.80
2023-06-20T07:37:54.518Z,14.85
2023-06-20T07:40:21.502Z,10.43
2023-06-20T07:42:48.298Z,10.30
2023-06-20T07:45:15.188Z,13.23
2023-06-20T07:47:44.246Z,9.98
2023-06-20T07:50:11.676Z,11.80
2023-06-20T07:52:38.346Z,13.10
2023-06-20T07:55:20.433Z,13.98
2023-06-20T07:57:55.397Z,14.00
2023-06-20T08:00:22.732Z,13.82
2023-06-20T08:02:52.834Z,13.27
2023-06-20T08:05:19.674Z,12.48
2023-06-20T08:07:50.968Z,12.65
2023-06-20T08:10:19.479Z,15.18
2023-06-20T08:13:13.410Z,10.37
2023-06-20T08:15:42.098Z,11.68
2023-06-20T08:18:11.202Z,11.07
2023-06-20T08:20:38.012Z,11.15
2023-06-20T08:23:04.907Z,11.75
2023-06-20T08:25:32.966Z,17.02
2023-06-20T08:28:14.263Z,13.68
2023-06-20T08:30:42.240Z,14.82
2023-06-20T08:33:08.975Z,15.20
2023-06-20T08:35:37.798Z,13.80
2023-06-20T08:38:04.649Z,16.05
2023-06-20T08:40:32.797Z,13.38
2023-06-20T08:42:59.834Z,13.00
2023-06-20T08:45:26.659Z,15.45
2023-06-20T08:47:53.364Z,14.93
2023-06-20T08:50:20.945Z,15.30
2023-06-20T08:52:53.444Z,18.52
2023-06-20T08:55:21.542Z,15.25
2023-06-20T08:57:49.740Z,17.63
2023-06-20T09:00:19.949Z,17.63
2023-06-20T09:02:46.735Z,19.40
2023-06-20T09:05:13.534Z,16.30
2023-06-20T09:07:41.182Z,13.63
2023-06-20T09:10:10.077Z,16.13
2023-06-20T09:15:15.946Z,17.05
2023-06-20T09:20:10.951Z,14.50
2023-06-20T09:22:39.202Z,16.48
2023-06-20T09:25:06.931Z,15.30
2023-06-20T09:27:34.960Z,15.35
2023-06-20T09:30:01.843Z,14.83
2023-06-20T09:32:33.890Z,15.23
2023-06-20T09:35:03.349Z,14.25
2023-06-20T09:37:38.982Z,17.13
2023-06-20T09:40:07.169Z,13.90
2023-06-20T09:42:34.796Z,14.30
2023-06-20T09:45:01.468Z,12.15
2023-06-20T09:47:31.970Z,14.90
2023-06-20T09:50:08.060Z,13.30
2023-06-20T09:52:39.707Z,12.68
2023-06-20T09:55:09.896Z,13.65
2023-06-20T09:57:44.755Z,15.20
2023-06-20T10:00:15.318Z,13.82
2023-06-20T10:02:45.316Z,13.38
2023-06-20T10:05:15.324Z,15.13
2023-06-20T10:07:44.051Z,14.05
2023-06-20T10:10:11.305Z,15.48
2023-06-20T10:12:39.063Z,14.40
2023-06-20T10:15:08.364Z,14.13
2023-06-20T10:17:38.932Z,14.88
2023-06-20T10:20:09.039Z,14.20
2023-06-20T10:22:37.588Z,17.42
2023-06-20T10:25:06.012Z,13.50
2023-06-20T10:27:32.643Z,13.30
2023-06-20T10:29:59.300Z,15.77
2023-06-20T10:32:25.876Z,16.70
2023-06-20T10:34:52.482Z,15.52
2023-06-20T10:37:38.727Z,13.93
2023-06-20T10:40:06.863Z,18.40
2023-06-20T10:42:38.537Z,15.60
2023-06-20T10:45:18.763Z,13.90
2023-06-20T10:47:45.615Z,14.00
2023-06-20T10:50:12.408Z,17.27
2023-06-20T10:52:40.473Z,13.57
2023-06-20T10:55:08.951Z,17.03
2023-06-20T10:57:36.073Z,15.02
2023-06-20T11:00:06.829Z,16.17
2023-06-20T11:02:34.758Z,14.30
2023-06-20T11:05:02.625Z,13.82
2023-06-20T11:07:39.604Z,14.50
2023-06-20T11:10:15.548Z,16.08
2023-06-20T11:12:43.846Z,12.00
2023-06-20T11:15:27.318Z,12.55
2023-06-20T11:17:55.085Z,15.15
2023-06-20T11:20:23.297Z,13.13
2023-06-20T11:22:51.810Z,14.25
2023-06-20T11:25:24.942Z,16.42
2023-06-20T11:27:51.836Z,14.07
2023-06-20T11:30:25.461Z,15.70
2023-06-20T11:33:05.013Z,13.98
2023-06-20T11:35:42.288Z,13.05
2023-06-20T11:38:10.333Z,15.52
2023-06-20T11:40:38.532Z,13.63
2023-06-20T11:43:05.471Z,14.65
2023-06-20T11:45:32.994Z,15.27
2023-06-20T11:48:09.799Z,15.68
2023-06-20T11:50:36.723Z,15.70
2023-06-20T11:53:04.057Z,18.20
2023-06-20T11:55:51.435Z,14.95
2023-06-20T11:58:18.654Z,16.48
2023-06-20T12:00:46.007Z,15.07
2023-06-20T12:03:15.729Z,15.93
2023-06-20T12:05:42.318Z,17.17
2023-06-20T12:08:08.915Z,13.38
2023-06-20T12:10:39.936Z,15.38
2023-06-20T12:13:07.879Z,14.57
2023-06-20T12:15:34.495Z,13.03
2023-06-20T12:18:01.251Z,14.75
2023-06-20T12:20:33.737Z,15.10
2023-06-20T12:23:02.307Z,13.90
2023-06-20T12:25:28.959Z,14.88
2023-06-20T12:27:55.774Z,12.88
2023-06-20T12:30:23.992Z,13.00
2023-06-20T12:32:50.715Z,11.93
2023-06-20T12:35:17.330Z,13.57
2023-06-20T12:37:43.983Z,13.60
2023-06-20T12:40:12.506Z,12.63
2023-06-20T12:42:39.072Z,12.18
2023-06-20T12:45:07.127Z,11.38
2023-06-20T12:47:35.099Z,13.30
2023-06-20T12:50:01.764Z,13.93
2023-06-20T12:52:28.298Z,12.52
2023-06-20T12:54:55.101Z,12.30
2023-06-20T12:57:21.812Z,11.82
2023-06-20T12:59:48.392Z,10.70
2023-06-20T13:02:14.998Z,11.93
2023-06-20T13:04:42.969Z,12.00
2023-06-20T13:07:09.579Z,10.73
2023-06-20T13:09:36.216Z,11.98
2023-06-20T13:12:02.845Z,12.57
2023-06-20T13:14:31.089Z,11.40
2023-06-20T13:16:58.008Z,12.75
2023-06-20T13:19:24.682Z,12.23
2023-06-20T13:21:52.646Z,11.18
2023-06-20T13:24:19.201Z,11.83
2023-06-20T13:26:45.857Z,15.32
2023-06-20T13:29:12.634Z,14.40
2023-06-20T13:31:39.231Z,11.40
2023-06-20T13:34:06.089Z,10.80
2023-06-20T13:36:33.213Z,15.25
2023-06-20T13:39:01.314Z,11.35
2023-06-20T13:41:28.343Z,13.07
2023-06-20T13:43:55.122Z,11.18
2023-06-20T13:46:21.920Z,13.60
2023-06-20T13:48:49.259Z,17.55
2023-06-20T13:51:16.310Z,13.80
2023-06-20T13:53:42.952Z,14.43
2023-06-20T13:56:10.931Z,13.68
2023-06-20T13:58:38.405Z,12.40
2023-06-20T14:01:05.271Z,11.48
2023-06-20T14:03:32.005Z,13.38
2023-06-20T14:05:58.728Z,13.57
2023-06-20T14:08:25.658Z,14.55
2023-06-20T14:10:52.286Z,13.20
2023-06-20T14:13:20.365Z,11.65
2023-06-20T14:15:47.195Z,12.60
2023-06-20T14:18:13.809Z,9.15
2023-06-20T14:20:40.913Z,10.00
2023-06-20T14:23:07.566Z,12.43
2023-06-20T14:25:34.154Z,10.40
2023-06-20T14:28:00.798Z,9.98
2023-06-20T14:30:29.159Z,10.15
2023-06-20T14:32:55.977Z,11.40
2023-06-20T14:35:22.563Z,9.43
2023-06-20T14:37:49.420Z,9.27
2023-06-20T14:40:15.993Z,8.77
2023-06-20T14:42:42.697Z,8.25
2023-06-20T14:45:10.286Z,9.73
2023-06-20T14:47:38.653Z,9.82
2023-06-20T14:50:06.389Z,9.23
2023-06-20T14:52:33.162Z,9.98
2023-06-20T14:54:59.865Z,12.10
2023-06-20T14:57:26.696Z,10.63
2023-06-20T14:59:53.295Z,10.52
2023-06-20T15:02:20.014Z,10.43
2023-06-20T15:04:48.095Z,9.15
2023-06-20T15:07:14.705Z,12.18
2023-06-20T15:09:41.468Z,8.77
2023-06-20T15:12:09.302Z,9.10
2023-06-20T15:14:35.873Z,9.73
2023-06-20T15:17:02.772Z,9.75
2023-06-20T15:19:29.457Z,11.38
2023-06-20T15:21:57.748Z,8.32
2023-06-20T15:24:24.393Z,9.75
2023-06-20T15:26:51.388Z,10.00
2023-06-20T15:29:20.048Z,9.60
2023-06-20T15:34:13.783Z,8.45
2023-06-20T15:36:40.459Z,9.10
2023-06-20T15:39:08.374Z,10.13
2023-06-20T15:41:34.982Z,7.83
2023-06-20T15:44:02.933Z,8.48
2023-06-20T15:46:40.700Z,7.23
2023-06-20T15:49:16.040Z,7.13
2023-06-20T15:51:42.650Z,8.50
2023-06-20T15:54:10.772Z,7.55
2023-06-20T15:56:37.373Z,7.82
2023-06-20T15:59:04.237Z,6.78
2023-06-20T16:01:30.940Z,8.25
2023-06-20T16:03:58.890Z,6.35
2023-06-20T16:06:25.592Z,6.55
2023-06-20T16:08:52.456Z,8.07
2023-06-20T16:11:21.972Z,7.32
2023-06-20T16:13:48.551Z,7.07
2023-06-20T16:16:15.243Z,8.15
2023-06-20T16:18:41.978Z,8.00
2023-06-20T16:21:09.744Z,8.07
2023-06-20T16:23:39.295Z,7.97
2023-06-20T16:26:06.484Z,9.05
2023-06-20T16:28:34.668Z,8.50
2023-06-20T16:31:01.691Z,7.50
2023-06-20T16:33:40.699Z,7.03
2023-06-20T16:36:15.035Z,8.98
2023-06-20T16:38:41.709Z,7.70
2023-06-20T16:41:08.330Z,9.07
2023-06-20T16:43:36.651Z,8.73
2023-06-20T16:46:03.372Z,8.15
2023-06-20T16:48:30.003Z,7.55
2023-06-20T16:50:56.612Z,7.03
2023-06-20T16:53:23.261Z,8.45
2023-06-20T16:55:49.934Z,8.55
2023-06-20T16:58:16.734Z,8.13
2023-06-20T17:00:44.747Z,8.02
2023-06-20T17:03:13.375Z,8.45
2023-06-20T17:08:06.674Z,7.70
2023-06-20T17:10:33.531Z,7.43
2023-06-20T17:13:00.195Z,6.90
2023-06-20T17:15:26.801Z,7.70
2023-06-20T17:17:54.850Z,8.68
2023-06-20T17:20:21.456Z,7.07
2023-06-20T17:22:48.172Z,8.93
2023-06-20T17:25:14.796Z,9.25
2023-06-20T17:27:41.419Z,8.98
2023-06-20T17:30:08.934Z,7.15
2023-06-20T17:32:35.665Z,7.97
2023-06-20T17:35:04.440Z,8.35
2023-06-20T17:39:57.581Z,7.20
2023-06-20T17:42:24.319Z,6.72
2023-06-20T17:44:51.031Z,8.05
2023-06-20T17:47:18.087Z,6.82
2023-06-20T17:49:44.835Z,10.52
2023-06-20T17:52:12.852Z,8.30
2023-06-20T17:54:39.723Z,8.57
2023-06-20T17:57:06.940Z,8.60
2023-06-20T17:59:33.556Z,7.75
2023-06-20T18:02:00.244Z,7.18
2023-06-20T18:04:27.009Z,9.07
2023-06-20T18:06:53.653Z,10.15
2023-06-20T18:09:21.597Z,8.02
2023-06-20T18:11:49.975Z,9.07
2023-06-20T18:14:17.620Z,9.63
2023-06-20T18:16:44.280Z,7.07
2023-06-20T18:19:10.867Z,9.30
2023-06-20T18:21:39.807Z,8.52
2023-06-20T18:24:07.121Z,9.65
2023-06-20T18:26:35.358Z,8.20
2023-06-20T18:29:01.925Z,7.38
2023-06-20T18:31:28.601Z,8.23
2023-06-20T18:33:55.449Z,8.25
2023-06-20T18:36:22.259Z,9.07
2023-06-20T18:38:48.858Z,7.65
2023-06-20T18:41:15.467Z,9.85
2023-06-20T18:43:43.452Z,8.35
2023-06-20T18:46:10.023Z,8.17
2023-06-20T18:48:36.624Z,9.18
2023-06-20T18:51:03.359Z,7.95
2023-06-20T18:53:29.955Z,8.60
2023-06-20T18:55:56.659Z,9.40
2023-06-20T18:58:23.260Z,8.50
2023-06-20T19:00:51.373Z,8.23
2023-06-20T19:03:18.063Z,11.23
2023-06-20T19:05:44.652Z,7.32
2023-06-20T19:08:11.247Z,9.88
2023-06-20T19:10:39.159Z,9.57
2023-06-20T19:13:05.766Z,8.63
2023-06-20T19:15:33.033Z,7.28
2023-06-20T19:18:00.998Z,8.05
2023-06-20T19:20:27.905Z,8.27
2023-06-20T19:22:54.741Z,8.18
2023-06-20T19:25:22.172Z,8.48
2023-06-20T19:27:48.851Z,7.40
2023-06-20T19:30:16.530Z,8.38
2023-06-20T19:32:43.760Z,8.10
2023-06-20T19:35:11.847Z,7.72
2023-06-20T19:37:38.514Z,8.77
2023-06-20T19:40:08.592Z,6.95
2023-06-20T19:42:35.815Z,9.43
2023-06-20T19:45:04.186Z,9.23
2023-06-20T19:47:30.821Z,10.30
2023-06-20T19:49:57.461Z,7.22
2023-06-20T19:52:25.365Z,4.38
2023-06-20T19:54:51.944Z,6.43
2023-06-20T19:57:18.542Z,4.05
2023-06-20T19:59:45.106Z,3.95
2023-06-20T20:02:12.034Z,3.72
2023-06-20T20:04:38.669Z,3.85
2023-06-20T20:07:05.998Z,2.63
2023-06-20T20:09:33.984Z,3.72
2023-06-20T20:12:00.802Z,2.80
2023-06-20T20:14:27.388Z,3.92
2023-06-20T20:16:54.211Z,4.40
2023-06-20T20:19:23.066Z,6.10
2023-06-20T20:21:50.001Z,6.07
2023-06-20T20:24:16.663Z,6.72
2023-06-20T20:26:44.669Z,5.13
2023-06-20T20:29:11.232Z,7.43
2023-06-20T20:31:37.828Z,7.25
2023-06-20T20:34:04.432Z,7.43
2023-06-20T20:36:31.009Z,6.60
2023-06-20T20:38:57.650Z,7.32
2023-06-20T20:41:24.277Z,6.45
2023-06-20T20:43:52.214Z,5.95
2023-06-20T20:46:18.995Z,4.63
2023-06-20T20:48:45.649Z,6.13
2023-06-20T20:51:12.360Z,6.28
2023-06-20T20:53:39.004Z,6.40
2023-06-20T20:56:05.580Z,5.25
2023-06-20T20:58:32.188Z,7.65
2023-06-20T21:01:00.231Z,7.72
2023-06-20T21:03:27.751Z,6.00
2023-06-20T21:05:54.711Z,6.80
2023-06-20T21:08:23.714Z,6.90
2023-06-20T21:10:50.558Z,6.68
2023-06-20T21:13:17.287Z,6.15
2023-06-20T21:15:44.142Z,5.97
2023-06-20T21:18:12.194Z,5.85
2023-06-20T21:20:38.865Z,6.23
2023-06-20T21:23:05.551Z,5.10
2023-06-20T21:25:32.687Z,5.15
2023-06-20T21:27:59.458Z,5.93
2023-06-20T21:30:26.429Z,5.75
2023-06-20T21:32:53.551Z,5.63
2023-06-20T21:35:21.538Z,6.22
2023-06-20T21:37:48.264Z,6.18
2023-06-20T21:40:14.865Z,7.35
2023-06-20T21:42:46.975Z,6.88
2023-06-20T21:45:13.686Z,5.80
2023-06-20T21:47:40.387Z,7.03
2023-06-20T21:50:07.900Z,6.72
2023-06-20T21:52:36.098Z,6.75
2023-06-20T21:55:02.644Z,7.85
2023-06-20T21:57:29.610Z,7.45
2023-06-20T21:59:56.350Z,6.97
2023-06-20T22:02:22.977Z,6.60
2023-06-20T22:04:49.573Z,7.55
2023-06-20T22:07:16.131Z,7.65
2023-06-20T22:09:58.250Z,7.70
2023-06-20T22:12:29.071Z,7.07
2023-06-20T22:14:55.640Z,6.50
2023-06-20T22:17:23.619Z,6.63
2023-06-20T22:19:50.441Z,7.43
2023-06-20T22:22:17.117Z,8.38
2023-06-20T22:24:45.132Z,6.55
2023-06-20T22:27:11.854Z,7.83
2023-06-20T22:29:38.458Z,8.10
2023-06-20T22:32:05.780Z,6.07
2023-06-20T22:34:32.473Z,6.20
2023-06-20T22:36:59.012Z,8.05
2023-06-20T22:39:25.606Z,7.63
2023-06-20T22:41:54.046Z,6.13
2023-06-20T22:44:22.656Z,7.88
2023-06-20T22:46:49.267Z,8.10
2023-06-20T22:49:15.849Z,9.95
2023-06-20T22:51:44.566Z,6.97
2023-06-20T22:54:11.149Z,7.85
2023-06-20T22:56:37.716Z,7.38
2023-06-20T22:59:05.636Z,7.07
2023-06-20T23:01:32.276Z,8.43
2023-06-20T23:03:58.871Z,9.52
2023-06-20T23:06:25.571Z,7.00
2023-06-20T23:08:52.174Z,7.07
2023-06-20T23:11:18.889Z,7.47
2023-06-20T23:13:45.442Z,9.45
2023-06-20T23:16:13.449Z,8.30
2023-06-20T23:18:40.129Z,7.03
2023-06-20T23:21:06.730Z,6.68
2023-06-20T23:23:33.543Z,8.45
2023-06-20T23:26:01.057Z,8.02
2023-06-20T23:28:27.613Z,7.25
2023-06-20T23:30:54.576Z,6.95
2023-06-20T23:33:22.602Z,8.80
2023-06-20T23:35:49.214Z,8.07
2023-06-20T23:38:15.809Z,9.38
2023-06-20T23:40:42.476Z,11.00
2023-06-20T23:43:09.163Z,8.02
2023-06-20T23:45:35.757Z,8.57
2023-06-20T23:48:02.408Z,8.85
2023-06-20T23:50:30.449Z,10.18
2023-06-20T23:52:57.145Z,9.90
2023-06-20T23:55:23.703Z,10.15
2023-06-20T23:57:50.282Z,9.73
